الصفحة الرئيسية
METAR-TAF:

METAR-TAF

مطار :

كرايستشيرش, نيوزيلندا

دائرة عرض: 43-29S, خط طول: 172-33E, ارتفاع: 38 متر

مراقبة الطقس الحالي

تاريخ ووقت الإصدار 21 دقيقة قبل الساعة 00:00UTC
ريح 9 عقدة من الجنوب
درجة الحرارة 10°درجة مئوية
الرطوبة 76%
ضغط 1011 hPa
الرؤية 10 كم أو أكثر

METAR: NZCH 180000Z AUTO 18009KT 9999 SCT040/// BKN065/// 10/06 Q1011 NOSIG

زمن: 12:21 (00:21 UTC)

توقعات

تاريخ ووقت الإصدار 1ساعة و 17 دقيقة قبل الساعة 23:04UTC
التوقعات صالحة من18 الساعة 00 UTC إلى 19 الساعة 00 UTC
ريح 8 عقدة من الجنوب الغربي
الرؤية 10 كم أو أكثر
غيوم قليلة على ارتفاع 2000 قدم
غيوم متفرقة على ارتفاع 3000 قدم
مؤقت
من 18 الساعة 17 UTC إلى 18 الساعة 20 UTC
الرؤية: 1500 متر
غشاء
أصبح
من 18 الساعة 22 UTC إلى 19 الساعة 00 UTC
ريح 10 عقدة من الشرق/الشمال الشرقي

TAF: NZCH 172304Z 1800/1900 23008KT 9999 FEW020 SCT030 TEMPO 1817/1820 1500 BR BECMG 1822/1900 06010KT

أرصاد الطقس والتوقعات من أكثر من 4000 مطار (تقارير الطقس للمطار METAR والتنبؤ بالطقس بالمطارTAF).

المحطات المتاحة هي النقط الصفراء والحمراء على الخريطة.

حرك المؤشر فوق النقطة لمعرفة اسم المحطة.

ثم انقر لمعرفة أرصاد وتوقعات الطقس.

لتغيير الخارطة: اضغط على الأزرار الخضراء مع رمز الصليب الأسود للتكبير. على الزر الأخضر مع شرطة للتصغير، أو على الأسهم الخضراء للخرائط المجاورة.


METAR-TAF: